sensor_id;sensor_type;location;lat;lon;timestamp;pressure;altitude;pressure_sealevel;temperature
69857;BMP280;57147;53.582;10.112;2023-02-28T00:00:34;102993.59;;;3.47
69857;BMP280;57147;53.582;10.112;2023-02-28T00:05:37;102993.22;;;3.20
69857;BMP280;57147;53.582;10.112;2023-02-28T00:10:38;102945.03;;;2.92
69857;BMP280;57147;53.582;10.112;2023-02-28T00:15:44;102988.47;;;3.09
69857;BMP280;57147;53.582;10.112;2023-02-28T00:20:45;102979.69;;;2.87
69857;BMP280;57147;53.582;10.112;2023-02-28T00:25:46;102953.53;;;2.94
69857;BMP280;57147;53.582;10.112;2023-02-28T00:30:49;102992.78;;;3.32
69857;BMP280;57147;53.582;10.112;2023-02-28T00:35:50;102968.72;;;3.13
69857;BMP280;57147;53.582;10.112;2023-02-28T00:40:53;102988.38;;;3.32
69857;BMP280;57147;53.582;10.112;2023-02-28T00:45:56;102891.63;;;2.70
69857;BMP280;57147;53.582;10.112;2023-02-28T00:50:57;102989.06;;;3.41
69857;BMP280;57147;53.582;10.112;2023-02-28T00:55:58;102974.13;;;3.27
69857;BMP280;57147;53.582;10.112;2023-02-28T01:01:03;102984.03;;;3.10
69857;BMP280;57147;53.582;10.112;2023-02-28T01:06:05;102954.84;;;2.61
69857;BMP280;57147;53.582;10.112;2023-02-28T01:11:11;102976.47;;;2.63
69857;BMP280;57147;53.582;10.112;2023-02-28T01:16:15;102981.50;;;2.49
69857;BMP280;57147;53.582;10.112;2023-02-28T01:21:20;102972.22;;;2.24
69857;BMP280;57147;53.582;10.112;2023-02-28T01:26:25;103000.66;;;2.50
69857;BMP280;57147;53.582;10.112;2023-02-28T01:31:29;102957.59;;;2.44
69857;BMP280;57147;53.582;10.112;2023-02-28T01:36:33;102983.63;;;2.69
69857;BMP280;57147;53.582;10.112;2023-02-28T01:41:35;102989.59;;;2.77
69857;BMP280;57147;53.582;10.112;2023-02-28T01:46:38;102991.00;;;2.88
69857;BMP280;57147;53.582;10.112;2023-02-28T01:51:41;102980.19;;;2.83
69857;BMP280;57147;53.582;10.112;2023-02-28T01:56:45;102996.94;;;2.82
69857;BMP280;57147;53.582;10.112;2023-02-28T02:01:49;102964.22;;;2.32
69857;BMP280;57147;53.582;10.112;2023-02-28T02:07:00;102976.34;;;2.56
69857;BMP280;57147;53.582;10.112;2023-02-28T02:12:10;102992.19;;;2.63
69857;BMP280;57147;53.582;10.112;2023-02-28T02:17:26;102984.75;;;2.51
69857;BMP280;57147;53.582;10.112;2023-02-28T02:28:35;102968.75;;;2.01
69857;BMP280;57147;53.582;10.112;2023-02-28T02:39:24;102975.75;;;1.77
69857;BMP280;57147;53.582;10.112;2023-02-28T02:44:32;102972.00;;;1.41
69857;BMP280;57147;53.582;10.112;2023-02-28T02:49:36;102941.72;;;0.91
69857;BMP280;57147;53.582;10.112;2023-02-28T02:54:41;102948.72;;;0.99
69857;BMP280;57147;53.582;10.112;2023-02-28T02:59:43;102956.41;;;0.84
69857;BMP280;57147;53.582;10.112;2023-02-28T03:04:49;102946.94;;;0.75
69857;BMP280;57147;53.582;10.112;2023-02-28T03:09:55;102944.81;;;0.70
69857;BMP280;57147;53.582;10.112;2023-02-28T03:15:08;102917.09;;;0.37
69857;BMP280;57147;53.582;10.112;2023-02-28T03:20:17;102948.59;;;0.27
69857;BMP280;57147;53.582;10.112;2023-02-28T03:25:38;102923.09;;;0.21
69857;BMP280;57147;53.582;10.112;2023-02-28T03:30:44;102914.94;;;0.16
69857;BMP280;57147;53.582;10.112;2023-02-28T03:35:51;102950.53;;;0.09
69857;BMP280;57147;53.582;10.112;2023-02-28T03:41:01;102940.22;;;-0.01
69857;BMP280;57147;53.582;10.112;2023-02-28T03:46:07;102955.53;;;-0.14
69857;BMP280;57147;53.582;10.112;2023-02-28T03:51:10;102949.50;;;-0.14
69857;BMP280;57147;53.582;10.112;2023-02-28T03:56:17;102938.34;;;-0.25
69857;BMP280;57147;53.582;10.112;2023-02-28T04:01:23;102952.69;;;-0.29
69857;BMP280;57147;53.582;10.112;2023-02-28T04:06:25;102955.28;;;-0.37
69857;BMP280;57147;53.582;10.112;2023-02-28T04:11:32;102949.22;;;-0.45
69857;BMP280;57147;53.582;10.112;2023-02-28T04:16:36;102955.38;;;-0.55
69857;BMP280;57147;53.582;10.112;2023-02-28T04:21:40;102944.38;;;-0.66
69857;BMP280;57147;53.582;10.112;2023-02-28T04:26:45;102953.88;;;-0.57
69857;BMP280;57147;53.582;10.112;2023-02-28T04:31:46;102943.34;;;-0.73
69857;BMP280;57147;53.582;10.112;2023-02-28T04:36:47;102945.81;;;-0.72
69857;BMP280;57147;53.582;10.112;2023-02-28T04:41:51;102956.00;;;-0.87
69857;BMP280;57147;53.582;10.112;2023-02-28T04:46:52;102961.06;;;-0.85
69857;BMP280;57147;53.582;10.112;2023-02-28T04:51:52;102943.28;;;-0.90
69857;BMP280;57147;53.582;10.112;2023-02-28T04:56:56;102963.72;;;-0.77
69857;BMP280;57147;53.582;10.112;2023-02-28T05:01:56;102958.56;;;-0.95
69857;BMP280;57147;53.582;10.112;2023-02-28T05:06:57;102952.25;;;-1.10
69857;BMP280;57147;53.582;10.112;2023-02-28T05:12:00;102973.03;;;-1.00
69857;BMP280;57147;53.582;10.112;2023-02-28T05:17:01;102974.09;;;-1.11
69857;BMP280;57147;53.582;10.112;2023-02-28T05:22:01;102978.66;;;-1.13
69857;BMP280;57147;53.582;10.112;2023-02-28T05:27:05;102982.22;;;-1.14
69857;BMP280;57147;53.582;10.112;2023-02-28T05:32:05;102980.88;;;-1.18
69857;BMP280;57147;53.582;10.112;2023-02-28T05:37:07;102985.59;;;-1.39
69857;BMP280;57147;53.582;10.112;2023-02-28T05:42:13;102966.84;;;-1.43
69857;BMP280;57147;53.582;10.112;2023-02-28T05:47:14;102967.81;;;-1.26
69857;BMP280;57147;53.582;10.112;2023-02-28T05:52:14;102972.66;;;-1.31
69857;BMP280;57147;53.582;10.112;2023-02-28T05:57:18;102991.50;;;-1.37
69857;BMP280;57147;53.582;10.112;2023-02-28T06:02:18;102987.63;;;-1.33
69857;BMP280;57147;53.582;10.112;2023-02-28T06:07:19;102992.84;;;-1.33
69857;BMP280;57147;53.582;10.112;2023-02-28T06:12:22;102993.94;;;-1.36
69857;BMP280;57147;53.582;10.112;2023-02-28T06:17:23;102988.22;;;-1.39
69857;BMP280;57147;53.582;10.112;2023-02-28T06:22:24;102972.97;;;-1.62
69857;BMP280;57147;53.582;10.112;2023-02-28T06:27:27;102997.78;;;-1.58
69857;BMP280;57147;53.582;10.112;2023-02-28T06:32:28;102995.81;;;-1.73
69857;BMP280;57147;53.582;10.112;2023-02-28T06:37:30;103015.69;;;-1.45
69857;BMP280;57147;53.582;10.112;2023-02-28T06:42:33;103011.09;;;-1.61
69857;BMP280;57147;53.582;10.112;2023-02-28T06:47:34;103015.47;;;-1.51
69857;BMP280;57147;53.582;10.112;2023-02-28T06:52:34;103000.44;;;-1.40
69857;BMP280;57147;53.582;10.112;2023-02-28T06:57:38;103024.22;;;-1.17
69857;BMP280;57147;53.582;10.112;2023-02-28T07:02:39;103015.66;;;-1.09
69857;BMP280;57147;53.582;10.112;2023-02-28T07:07:39;103029.97;;;-0.96
69857;BMP280;57147;53.582;10.112;2023-02-28T07:12:43;103018.56;;;-0.95
69857;BMP280;57147;53.582;10.112;2023-02-28T07:17:43;103025.16;;;-0.82
69857;BMP280;57147;53.582;10.112;2023-02-28T07:22:44;103015.69;;;-0.83
69857;BMP280;57147;53.582;10.112;2023-02-28T07:27:47;102978.94;;;-0.98
69857;BMP280;57147;53.582;10.112;2023-02-28T07:32:48;103027.69;;;-0.47
69857;BMP280;57147;53.582;10.112;2023-02-28T07:37:48;103008.28;;;-0.44
69857;BMP280;57147;53.582;10.112;2023-02-28T07:42:52;103026.00;;;-0.22
69857;BMP280;57147;53.582;10.112;2023-02-28T07:47:53;103034.06;;;-0.07
69857;BMP280;57147;53.582;10.112;2023-02-28T07:52:54;103012.47;;;-0.17
69857;BMP280;57147;53.582;10.112;2023-02-28T07:57:57;103034.13;;;0.09
69857;BMP280;57147;53.582;10.112;2023-02-28T08:02:58;103046.25;;;0.26
69857;BMP280;57147;53.582;10.112;2023-02-28T08:07:58;103049.41;;;0.38
69857;BMP280;57147;53.582;10.112;2023-02-28T08:13:01;103051.88;;;0.56
69857;BMP280;57147;53.582;10.112;2023-02-28T08:18:05;103051.56;;;0.75
69857;BMP280;57147;53.582;10.112;2023-02-28T08:23:06;103052.56;;;0.90
69857;BMP280;57147;53.582;10.112;2023-02-28T08:28:09;103035.56;;;0.94
69857;BMP280;57147;53.582;10.112;2023-02-28T08:33:10;103057.13;;;1.21
69857;BMP280;57147;53.582;10.112;2023-02-28T08:38:10;103064.31;;;1.35
69857;BMP280;57147;53.582;10.112;2023-02-28T08:43:14;103071.78;;;1.46
69857;BMP280;57147;53.582;10.112;2023-02-28T08:48:15;103071.75;;;1.62
69857;BMP280;57147;53.582;10.112;2023-02-28T08:53:15;103074.69;;;1.67
69857;BMP280;57147;53.582;10.112;2023-02-28T08:58:18;103081.97;;;1.88
69857;BMP280;57147;53.582;10.112;2023-02-28T09:03:20;103088.78;;;2.05
69857;BMP280;57147;53.582;10.112;2023-02-28T09:08:20;103103.28;;;2.24
69857;BMP280;57147;53.582;10.112;2023-02-28T09:13:24;103112.66;;;2.41
69857;BMP280;57147;53.582;10.112;2023-02-28T09:18:25;103115.53;;;2.54
69857;BMP280;57147;53.582;10.112;2023-02-28T09:23:26;103116.59;;;2.68
69857;BMP280;57147;53.582;10.112;2023-02-28T09:28:30;103128.63;;;2.85
69857;BMP280;57147;53.582;10.112;2023-02-28T09:33:30;103120.50;;;2.95
69857;BMP280;57147;53.582;10.112;2023-02-28T09:38:31;103122.00;;;3.12
69857;BMP280;57147;53.582;10.112;2023-02-28T09:43:38;103125.50;;;3.19
69857;BMP280;57147;53.582;10.112;2023-02-28T09:48:41;103140.59;;;3.55
69857;BMP280;57147;53.582;10.112;2023-02-28T09:53:44;103143.16;;;3.63
69857;BMP280;57147;53.582;10.112;2023-02-28T09:58:49;103159.03;;;3.84
69857;BMP280;57147;53.582;10.112;2023-02-28T10:03:56;103162.28;;;3.86
69857;BMP280;57147;53.582;10.112;2023-02-28T10:09:01;103149.56;;;3.90
69857;BMP280;57147;53.582;10.112;2023-02-28T10:14:11;103148.56;;;4.06
69857;BMP280;57147;53.582;10.112;2023-02-28T10:19:15;103152.34;;;4.18
69857;BMP280;57147;53.582;10.112;2023-02-28T10:24:21;103138.13;;;4.48
69857;BMP280;57147;53.582;10.112;2023-02-28T10:29:26;103146.41;;;4.67
69857;BMP280;57147;53.582;10.112;2023-02-28T10:34:27;103148.38;;;4.86
69857;BMP280;57147;53.582;10.112;2023-02-28T10:39:35;103153.44;;;4.87
69857;BMP280;57147;53.582;10.112;2023-02-28T10:44:39;103142.00;;;4.74
69857;BMP280;57147;53.582;10.112;2023-02-28T10:49:47;103152.31;;;4.96
69857;BMP280;57147;53.582;10.112;2023-02-28T10:54:47;103153.50;;;4.94
69857;BMP280;57147;53.582;10.112;2023-02-28T11:00:08;103149.19;;;5.14
69857;BMP280;57147;53.582;10.112;2023-02-28T11:05:27;103158.88;;;5.63
69857;BMP280;57147;53.582;10.112;2023-02-28T11:10:30;103158.06;;;5.69
69857;BMP280;57147;53.582;10.112;2023-02-28T11:15:34;103165.28;;;5.54
69857;BMP280;57147;53.582;10.112;2023-02-28T11:20:38;103163.31;;;5.62
69857;BMP280;57147;53.582;10.112;2023-02-28T11:25:46;103162.69;;;6.08
69857;BMP280;57147;53.582;10.112;2023-02-28T11:31:00;103134.72;;;6.27
69857;BMP280;57147;53.582;10.112;2023-02-28T11:36:10;103151.00;;;6.63
69857;BMP280;57147;53.582;10.112;2023-02-28T11:41:27;103137.19;;;6.74
69857;BMP280;57147;53.582;10.112;2023-02-28T11:46:37;103141.25;;;6.97
69857;BMP280;57147;53.582;10.112;2023-02-28T11:51:47;103132.72;;;6.95
69857;BMP280;57147;53.582;10.112;2023-02-28T11:56:51;103121.13;;;6.96
69857;BMP280;57147;53.582;10.112;2023-02-28T12:02:15;103121.75;;;7.11
69857;BMP280;57147;53.582;10.112;2023-02-28T12:07:18;103112.75;;;7.25
69857;BMP280;57147;53.582;10.112;2023-02-28T12:12:31;103094.47;;;7.17
69857;BMP280;57147;53.582;10.112;2023-02-28T12:17:46;103105.44;;;7.27
69857;BMP280;57147;53.582;10.112;2023-02-28T12:22:57;103097.53;;;7.20
69857;BMP280;57147;53.582;10.112;2023-02-28T12:28:00;103077.38;;;7.26
69857;BMP280;57147;53.582;10.112;2023-02-28T12:33:06;103056.84;;;7.28
69857;BMP280;57147;53.582;10.112;2023-02-28T12:38:11;103078.72;;;7.86
69857;BMP280;57147;53.582;10.112;2023-02-28T12:43:16;103069.44;;;8.02
69857;BMP280;57147;53.582;10.112;2023-02-28T12:48:25;103046.81;;;8.06
69857;BMP280;57147;53.582;10.112;2023-02-28T12:53:32;103051.84;;;7.83
69857;BMP280;57147;53.582;10.112;2023-02-28T12:58:39;103043.91;;;8.14
69857;BMP280;57147;53.582;10.112;2023-02-28T13:03:56;103036.09;;;8.26
69857;BMP280;57147;53.582;10.112;2023-02-28T13:09:11;103008.81;;;8.25
69857;BMP280;57147;53.582;10.112;2023-02-28T13:14:20;103029.34;;;8.66
69857;BMP280;57147;53.582;10.112;2023-02-28T13:19:26;103006.91;;;8.51
69857;BMP280;57147;53.582;10.112;2023-02-28T13:24:41;103020.28;;;8.56
69857;BMP280;57147;53.582;10.112;2023-02-28T13:29:43;103013.09;;;8.45
69857;BMP280;57147;53.582;10.112;2023-02-28T13:35:13;103020.59;;;8.66
69857;BMP280;57147;53.582;10.112;2023-02-28T13:40:30;103014.56;;;8.59
69857;BMP280;57147;53.582;10.112;2023-02-28T13:45:31;103009.13;;;8.72
69857;BMP280;57147;53.582;10.112;2023-02-28T13:50:37;103028.59;;;8.41
69857;BMP280;57147;53.582;10.112;2023-02-28T13:55:43;103016.28;;;8.71
69857;BMP280;57147;53.582;10.112;2023-02-28T14:01:11;103022.66;;;9.00
69857;BMP280;57147;53.582;10.112;2023-02-28T14:06:22;103032.09;;;8.96
69857;BMP280;57147;53.582;10.112;2023-02-28T14:11:28;103020.69;;;9.26
69857;BMP280;57147;53.582;10.112;2023-02-28T14:16:37;103004.94;;;9.31
69857;BMP280;57147;53.582;10.112;2023-02-28T14:21:49;103022.59;;;9.78
69857;BMP280;57147;53.582;10.112;2023-02-28T14:26:59;103024.22;;;10.14
69857;BMP280;57147;53.582;10.112;2023-02-28T14:32:14;103022.59;;;10.13
69857;BMP280;57147;53.582;10.112;2023-02-28T14:37:26;103017.63;;;10.28
69857;BMP280;57147;53.582;10.112;2023-02-28T14:42:32;103027.56;;;10.33
69857;BMP280;57147;53.582;10.112;2023-02-28T14:47:34;103016.38;;;10.08
69857;BMP280;57147;53.582;10.112;2023-02-28T14:52:38;103022.81;;;10.12
69857;BMP280;57147;53.582;10.112;2023-02-28T14:57:41;103025.81;;;10.27
69857;BMP280;57147;53.582;10.112;2023-02-28T15:02:42;103021.31;;;10.27
69857;BMP280;57147;53.582;10.112;2023-02-28T15:07:46;103006.66;;;10.13
69857;BMP280;57147;53.582;10.112;2023-02-28T15:12:52;103015.91;;;9.87
69857;BMP280;57147;53.582;10.112;2023-02-28T15:17:56;103013.06;;;9.47
69857;BMP280;57147;53.582;10.112;2023-02-28T15:23:01;102981.75;;;8.78
69857;BMP280;57147;53.582;10.112;2023-02-28T15:28:02;103006.47;;;8.54
69857;BMP280;57147;53.582;10.112;2023-02-28T15:33:07;102989.78;;;8.10
69857;BMP280;57147;53.582;10.112;2023-02-28T15:38:23;102982.25;;;7.89
69857;BMP280;57147;53.582;10.112;2023-02-28T15:43:29;102977.56;;;7.53
69857;BMP280;57147;53.582;10.112;2023-02-28T15:48:33;102993.84;;;7.56
69857;BMP280;57147;53.582;10.112;2023-02-28T15:53:42;102981.56;;;7.37
69857;BMP280;57147;53.582;10.112;2023-02-28T15:58:50;102985.28;;;7.23
69857;BMP280;57147;53.582;10.112;2023-02-28T16:03:55;102979.88;;;7.05
69857;BMP280;57147;53.582;10.112;2023-02-28T16:09:04;102973.44;;;6.88
69857;BMP280;57147;53.582;10.112;2023-02-28T16:14:17;102988.09;;;6.77
69857;BMP280;57147;53.582;10.112;2023-02-28T16:24:42;102992.63;;;6.50
69857;BMP280;57147;53.582;10.112;2023-02-28T16:29:43;103004.03;;;6.31
69857;BMP280;57147;53.582;10.112;2023-02-28T16:34:50;102991.41;;;6.06
69857;BMP280;57147;53.582;10.112;2023-02-28T16:39:53;102999.72;;;5.90
69857;BMP280;57147;53.582;10.112;2023-02-28T16:44:55;102992.81;;;5.69
69857;BMP280;57147;53.582;10.112;2023-02-28T16:49:56;102963.13;;;5.41
69857;BMP280;57147;53.582;10.112;2023-02-28T16:54:59;103003.44;;;5.42
69857;BMP280;57147;53.582;10.112;2023-02-28T17:00:00;103000.94;;;5.20
69857;BMP280;57147;53.582;10.112;2023-02-28T17:05:00;102993.47;;;4.89
69857;BMP280;57147;53.582;10.112;2023-02-28T17:10:12;103004.19;;;4.81
69857;BMP280;57147;53.582;10.112;2023-02-28T17:15:15;103016.81;;;4.64
69857;BMP280;57147;53.582;10.112;2023-02-28T17:20:17;103018.47;;;4.44
69857;BMP280;57147;53.582;10.112;2023-02-28T17:25:21;103011.19;;;4.25
69857;BMP280;57147;53.582;10.112;2023-02-28T17:30:24;103019.66;;;4.20
69857;BMP280;57147;53.582;10.112;2023-02-28T17:35:25;102990.00;;;3.84
69857;BMP280;57147;53.582;10.112;2023-02-28T17:40:29;102982.88;;;3.63
69857;BMP280;57147;53.582;10.112;2023-02-28T17:45:29;103024.44;;;3.74
69857;BMP280;57147;53.582;10.112;2023-02-28T17:50:30;103019.28;;;3.66
69857;BMP280;57147;53.582;10.112;2023-02-28T17:55:34;103022.13;;;3.50
69857;BMP280;57147;53.582;10.112;2023-02-28T18:00:35;103013.81;;;3.32
69857;BMP280;57147;53.582;10.112;2023-02-28T18:05:36;103016.97;;;3.27
69857;BMP280;57147;53.582;10.112;2023-02-28T18:10:45;103020.88;;;3.16
69857;BMP280;57147;53.582;10.112;2023-02-28T18:15:46;103025.59;;;3.06
69857;BMP280;57147;53.582;10.112;2023-02-28T18:20:46;103017.78;;;2.98
69857;BMP280;57147;53.582;10.112;2023-02-28T18:25:50;103018.97;;;2.96
69857;BMP280;57147;53.582;10.112;2023-02-28T18:30:51;102995.22;;;2.74
69857;BMP280;57147;53.582;10.112;2023-02-28T18:35:55;102993.00;;;2.63
69857;BMP280;57147;53.582;10.112;2023-02-28T18:41:00;103008.41;;;2.66
69857;BMP280;57147;53.582;10.112;2023-02-28T18:46:03;102987.09;;;2.46
69857;BMP280;57147;53.582;10.112;2023-02-28T18:51:07;102997.75;;;2.45
69857;BMP280;57147;53.582;10.112;2023-02-28T18:56:13;102988.47;;;2.34
69857;BMP280;57147;53.582;10.112;2023-02-28T19:01:16;102987.28;;;2.22
69857;BMP280;57147;53.582;10.112;2023-02-28T19:06:17;102970.41;;;2.02
69857;BMP280;57147;53.582;10.112;2023-02-28T19:11:21;102971.38;;;2.01
69857;BMP280;57147;53.582;10.112;2023-02-28T19:16:22;102974.66;;;2.03
69857;BMP280;57147;53.582;10.112;2023-02-28T19:21:23;102967.50;;;1.89
69857;BMP280;57147;53.582;10.112;2023-02-28T19:26:27;102967.03;;;1.85
69857;BMP280;57147;53.582;10.112;2023-02-28T19:31:27;102963.78;;;1.83
69857;BMP280;57147;53.582;10.112;2023-02-28T19:36:28;102991.47;;;1.77
69857;BMP280;57147;53.582;10.112;2023-02-28T19:41:31;102991.00;;;1.74
69857;BMP280;57147;53.582;10.112;2023-02-28T19:46:32;102988.59;;;1.64
69857;BMP280;57147;53.582;10.112;2023-02-28T19:51:33;102995.16;;;1.60
69857;BMP280;57147;53.582;10.112;2023-02-28T19:56:36;102992.88;;;1.49
69857;BMP280;57147;53.582;10.112;2023-02-28T20:01:37;102974.81;;;1.31
69857;BMP280;57147;53.582;10.112;2023-02-28T20:06:38;102988.72;;;1.40
69857;BMP280;57147;53.582;10.112;2023-02-28T20:11:41;102994.28;;;1.37
69857;BMP280;57147;53.582;10.112;2023-02-28T20:16:42;102992.00;;;1.26
69857;BMP280;57147;53.582;10.112;2023-02-28T20:21:43;102968.31;;;1.11
69857;BMP280;57147;53.582;10.112;2023-02-28T20:26:47;102990.06;;;1.20
69857;BMP280;57147;53.582;10.112;2023-02-28T20:31:47;102982.25;;;1.03
69857;BMP280;57147;53.582;10.112;2023-02-28T20:36:50;102963.63;;;0.82
69857;BMP280;57147;53.582;10.112;2023-02-28T20:41:55;102979.97;;;0.92
69857;BMP280;57147;53.582;10.112;2023-02-28T20:47:02;102980.28;;;0.89
69857;BMP280;57147;53.582;10.112;2023-02-28T20:52:03;102982.09;;;0.80
69857;BMP280;57147;53.582;10.112;2023-02-28T20:57:07;102959.41;;;0.65
69857;BMP280;57147;53.582;10.112;2023-02-28T21:02:09;102954.81;;;0.59
69857;BMP280;57147;53.582;10.112;2023-02-28T21:07:13;102966.56;;;0.71
69857;BMP280;57147;53.582;10.112;2023-02-28T21:12:16;102961.03;;;0.66
69857;BMP280;57147;53.582;10.112;2023-02-28T21:17:17;102972.94;;;0.68
69857;BMP280;57147;53.582;10.112;2023-02-28T21:22:18;102982.56;;;0.68
69857;BMP280;57147;53.582;10.112;2023-02-28T21:27:21;102973.13;;;0.59
69857;BMP280;57147;53.582;10.112;2023-02-28T21:32:22;102976.72;;;0.50
69857;BMP280;57147;53.582;10.112;2023-02-28T21:37:23;102991.44;;;0.51
69857;BMP280;57147;53.582;10.112;2023-02-28T21:42:27;102989.31;;;0.46
69857;BMP280;57147;53.582;10.112;2023-02-28T21:47:27;102989.78;;;0.41
69857;BMP280;57147;53.582;10.112;2023-02-28T21:52:28;102995.00;;;0.33
69857;BMP280;57147;53.582;10.112;2023-02-28T21:57:32;102980.94;;;0.26
69857;BMP280;57147;53.582;10.112;2023-02-28T22:02:33;102985.81;;;0.21
69857;BMP280;57147;53.582;10.112;2023-02-28T22:07:33;102984.19;;;0.20
69857;BMP280;57147;53.582;10.112;2023-02-28T22:12:36;102978.94;;;0.20
69857;BMP280;57147;53.582;10.112;2023-02-28T22:17:37;102979.28;;;0.17
69857;BMP280;57147;53.582;10.112;2023-02-28T22:22:39;102974.38;;;0.14
69857;BMP280;57147;53.582;10.112;2023-02-28T22:27:43;102948.44;;;-0.30
69857;BMP280;57147;53.582;10.112;2023-02-28T22:32:44;102972.03;;;-0.05
69857;BMP280;57147;53.582;10.112;2023-02-28T22:37:46;102986.13;;;0.02
69857;BMP280;57147;53.582;10.112;2023-02-28T22:42:49;102988.69;;;-0.06
69857;BMP280;57147;53.582;10.112;2023-02-28T22:47:50;102990.31;;;-0.05
69857;BMP280;57147;53.582;10.112;2023-02-28T22:52:51;102992.28;;;-0.07
69857;BMP280;57147;53.582;10.112;2023-02-28T22:57:54;102989.00;;;-0.09
69857;BMP280;57147;53.582;10.112;2023-02-28T23:02:56;102985.53;;;-0.18
69857;BMP280;57147;53.582;10.112;2023-02-28T23:07:57;102987.50;;;-0.20
69857;BMP280;57147;53.582;10.112;2023-02-28T23:13:00;102990.88;;;-0.28
69857;BMP280;57147;53.582;10.112;2023-02-28T23:18:01;102979.13;;;-0.32
69857;BMP280;57147;53.582;10.112;2023-02-28T23:23:01;102975.22;;;-0.36
69857;BMP280;57147;53.582;10.112;2023-02-28T23:28:05;102976.44;;;-0.48
69857;BMP280;57147;53.582;10.112;2023-02-28T23:33:06;102967.69;;;-0.39
69857;BMP280;57147;53.582;10.112;2023-02-28T23:38:07;102959.81;;;-0.47
69857;BMP280;57147;53.582;10.112;2023-02-28T23:43:10;102955.88;;;-0.51
69857;BMP280;57147;53.582;10.112;2023-02-28T23:48:11;102951.63;;;-0.52
69857;BMP280;57147;53.582;10.112;2023-02-28T23:53:12;102957.22;;;-0.47
69857;BMP280;57147;53.582;10.112;2023-02-28T23:58:15;102958.13;;;-0.56
